aviador You're here:

KBKW Decoded Metar

BECKLEY in WV, USA
Report Time2017-11-24 20:51:00
UTC Time2017-11-24 21:54:28
Flight Rules vfr VFR
Wind220° at 05 kt
W.Decomp.*RWY 19: 4.0 kt HW 2.9 kt RCW
RWY 28: 2.9 kt HW 4 kt LCW
W.Rank220° ranks 7
Current wind is below 220° avg. (6.7)
Visibility9999 m
Phenomena:N/A
Clouds:N/A
Expected CloudBase > 8,400 ft AGL from Temp-Dew spread
CeilingNone
Temp14°C (ISA +4)
Dew Point-7°C (23% RH)
AAT9.4°C
QNH1013 hPa
Density Alt3,031 ft
Elevation2,507 ft
Report Wrong Elevation
Raw Report
METAR KBKW 242051Z AUTO 22005KT 10SM CLR 14/M07 A2990 RMK AO2 SLP133
T01391067 56012 TSNO=

Extra information for KBKW:More info

Metar Taf Metar & Taf Last 4 Metars F.Rules Stats Wind Profile Meteogram Temp Stats Airport Information Weather charts Add Link Nearby VenuesMetar ALERT Operation Metar Decoded Social comments

AIRNAV info for KBKW